createdAt,value
2022-10-14T00:01:08.780Z,96098.19
2022-10-14T00:03:11.502Z,95952.34
2022-10-14T00:05:14.566Z,95978.34
2022-10-14T00:07:17.351Z,96081.28
2022-10-14T00:09:20.082Z,96095.75
2022-10-14T00:11:26.265Z,96012.91
2022-10-14T00:13:28.948Z,96103.28
2022-10-14T00:15:31.590Z,96097.91
2022-10-14T00:17:34.395Z,96091.09
2022-10-14T00:19:37.090Z,96102.75
2022-10-14T00:21:42.061Z,96101.41
2022-10-14T00:23:46.161Z,96093.31
2022-10-14T00:25:48.876Z,96099.22
2022-10-14T00:27:55.215Z,96109.22
2022-10-14T00:29:57.923Z,96097.06
2022-10-14T00:32:00.625Z,96024.78
2022-10-14T00:34:03.604Z,96108.66
2022-10-14T00:36:07.766Z,95920.63
2022-10-14T00:38:10.749Z,96111.50
2022-10-14T00:40:14.342Z,96113.41
2022-10-14T00:42:17.059Z,95944.00
2022-10-14T00:45:03.237Z,96110.25
2022-10-14T00:47:06.729Z,96052.56
2022-10-14T00:49:13.319Z,96122.66
2022-10-14T00:51:17.223Z,96041.19
2022-10-14T00:53:20.945Z,95916.03
2022-10-14T00:55:26.535Z,96106.75
2022-10-14T00:57:30.840Z,95777.13
2022-10-14T00:59:34.919Z,96093.25
2022-10-14T01:01:39.954Z,96102.97
2022-10-14T01:03:42.966Z,96096.78
2022-10-14T01:05:51.176Z,96104.34
2022-10-14T01:08:03.852Z,95983.09
2022-10-14T01:10:13.513Z,96099.78
2022-10-14T01:12:29.453Z,96098.44
2022-10-14T01:14:37.826Z,96091.41
2022-10-14T01:16:53.367Z,96088.97
2022-10-14T01:19:07.037Z,96057.59
2022-10-14T01:21:17.734Z,96095.22
2022-10-14T01:23:45.334Z,96074.69
2022-10-14T01:25:58.200Z,96107.38
2022-10-14T01:28:24.296Z,96075.78
2022-10-14T01:30:30.965Z,95815.31
2022-10-14T01:32:39.200Z,95904.31
2022-10-14T01:34:50.742Z,96071.72
2022-10-14T01:37:00.324Z,96070.19
2022-10-14T01:39:12.073Z,96079.25
2022-10-14T01:41:20.851Z,95673.44
2022-10-14T01:43:27.437Z,96078.19
2022-10-14T01:45:35.040Z,95916.16
2022-10-14T01:47:40.581Z,96077.66
2022-10-14T01:49:48.061Z,96081.72
2022-10-14T01:51:53.654Z,96079.53
2022-10-14T01:54:01.641Z,96076.84
2022-10-14T01:56:05.645Z,96072.81
2022-10-14T01:58:11.781Z,96075.22
2022-10-14T02:00:15.659Z,96076.84
2022-10-14T02:02:20.880Z,96080.38
2022-10-14T02:04:24.515Z,96099.22
2022-10-14T02:06:32.371Z,95922.69
2022-10-14T02:08:39.780Z,95904.56
2022-10-14T02:11:02.549Z,96065.75
2022-10-14T02:13:22.972Z,96081.41
2022-10-14T02:15:32.899Z,95919.97
2022-10-14T02:17:49.231Z,96063.59
2022-10-14T02:19:59.374Z,96064.66
2022-10-14T02:22:08.367Z,96050.63
2022-10-14T02:24:16.711Z,96066.00
2022-10-14T02:26:20.278Z,96060.34
2022-10-14T02:28:26.799Z,96078.19
2022-10-14T02:30:33.535Z,96065.50
2022-10-14T02:32:41.618Z,96024.16
2022-10-14T02:34:52.137Z,95921.63
2022-10-14T02:36:56.778Z,96037.16
2022-10-14T02:39:01.764Z,96040.13
2022-10-14T02:41:09.610Z,96033.91
2022-10-14T02:43:13.441Z,96029.34
2022-10-14T02:45:17.327Z,96022.84
2022-10-14T02:47:21.759Z,95906.84
2022-10-14T02:49:27.092Z,96026.63
2022-10-14T02:51:30.133Z,96025.56
2022-10-14T02:53:32.852Z,96030.69
2022-10-14T02:55:35.728Z,96027.88
2022-10-14T02:57:39.315Z,96033.59
2022-10-14T02:59:42.092Z,96030.38
2022-10-14T03:01:44.951Z,96022.25
2022-10-14T03:03:49.471Z,96028.47
2022-10-14T03:05:54.732Z,95909.75
2022-10-14T03:07:58.020Z,95908.09
2022-10-14T03:10:03.228Z,95930.84
2022-10-14T03:12:09.829Z,96008.97
2022-10-14T03:14:13.079Z,96004.94
2022-10-14T03:16:16.082Z,96001.72
2022-10-14T03:18:21.604Z,96000.13
2022-10-14T03:20:25.830Z,96000.63
2022-10-14T03:22:34.131Z,95994.16
2022-10-14T03:24:37.021Z,95569.09
2022-10-14T03:26:57.977Z,95995.22
2022-10-14T03:29:02.250Z,95987.66
2022-10-14T03:31:22.777Z,95991.19
2022-10-14T03:33:39.583Z,95985.25
2022-10-14T03:35:51.269Z,95982.00
2022-10-14T03:38:03.112Z,95841.72
2022-10-14T03:40:10.391Z,95979.00
2022-10-14T03:42:13.199Z,95977.94
2022-10-14T03:44:20.814Z,95976.31
2022-10-14T03:46:43.508Z,95981.16
2022-10-14T03:48:46.980Z,95980.84
2022-10-14T03:50:50.115Z,95975.97
2022-10-14T03:52:55.996Z,95975.72
2022-10-14T03:55:10.621Z,95952.47
2022-10-14T03:57:13.433Z,95967.63
2022-10-14T03:59:23.435Z,95959.25
2022-10-14T04:01:29.017Z,95952.50
2022-10-14T04:03:52.048Z,95957.91
2022-10-14T04:05:54.896Z,95966.00
2022-10-14T04:07:59.870Z,95954.13
2022-10-14T04:10:03.327Z,95922.50
2022-10-14T04:12:07.782Z,95893.09
2022-10-14T04:14:24.473Z,95956.31
2022-10-14T04:16:28.078Z,95947.13
2022-10-14T04:18:42.495Z,95942.00
2022-10-14T04:20:47.178Z,95887.72
2022-10-14T04:22:51.690Z,95816.97
2022-10-14T04:24:56.046Z,95804.97
2022-10-14T04:26:59.684Z,95946.56
2022-10-14T04:29:16.401Z,95953.56
2022-10-14T04:31:29.192Z,95950.28
2022-10-14T04:33:37.015Z,95961.50
2022-10-14T04:35:49.407Z,95956.06
2022-10-14T04:37:59.975Z,95950.97
2022-10-14T04:40:06.307Z,95981.72
2022-10-14T04:42:16.335Z,95952.53
2022-10-14T04:44:22.811Z,95946.38
2022-10-14T04:46:29.730Z,95948.06
2022-10-14T04:48:32.499Z,95882.13
2022-10-14T04:50:36.166Z,95947.56
2022-10-14T04:52:57.804Z,95932.72
2022-10-14T04:55:00.583Z,95935.69
2022-10-14T04:57:13.519Z,95938.41
2022-10-14T04:59:21.840Z,95935.72
2022-10-14T05:01:45.563Z,95931.38
2022-10-14T05:03:49.078Z,95922.78
2022-10-14T05:05:52.997Z,95914.69
2022-10-14T05:07:56.882Z,95920.38
2022-10-14T05:10:06.697Z,95910.94
2022-10-14T05:12:16.277Z,95914.72
2022-10-14T05:14:26.525Z,95909.59
2022-10-14T05:16:42.390Z,95911.50
2022-10-14T05:18:46.390Z,95900.16
2022-10-14T05:20:49.929Z,95902.06
2022-10-14T05:22:54.435Z,95897.47
2022-10-14T05:24:57.206Z,95899.34
2022-10-14T05:27:00.866Z,95894.78
2022-10-14T05:29:06.220Z,95897.47
2022-10-14T05:31:10.728Z,95888.84
2022-10-14T05:33:21.304Z,95901.78
2022-10-14T05:35:40.121Z,95672.84
2022-10-14T05:37:49.677Z,95889.38
2022-10-14T05:39:52.491Z,95886.16
2022-10-14T05:41:58.909Z,95888.59
2022-10-14T05:44:04.628Z,95888.59
2022-10-14T05:46:07.355Z,95891.53
2022-10-14T05:48:15.792Z,95880.47
2022-10-14T05:50:19.440Z,95869.41
2022-10-14T05:52:23.818Z,95871.03
2022-10-14T05:54:26.866Z,95876.16
2022-10-14T05:56:32.000Z,95871.31
2022-10-14T05:58:35.345Z,95869.44
2022-10-14T06:00:39.832Z,95877.78
2022-10-14T06:02:47.461Z,95885.63
2022-10-14T06:04:54.798Z,95885.63
2022-10-14T06:07:00.014Z,95884.53
2022-10-14T06:09:05.504Z,95887.84
2022-10-14T06:11:10.556Z,95895.66
2022-10-14T06:13:14.752Z,95888.91
2022-10-14T06:15:21.014Z,95640.63
2022-10-14T06:17:23.859Z,95889.50
2022-10-14T06:19:27.378Z,95881.63
2022-10-14T06:21:31.519Z,95884.63
2022-10-14T06:23:34.427Z,95892.19
2022-10-14T06:25:37.652Z,95836.25
2022-10-14T06:27:40.447Z,95888.69
2022-10-14T06:29:43.232Z,95888.41
2022-10-14T06:31:46.073Z,95886.81
2022-10-14T06:33:48.814Z,95889.50
2022-10-14T06:35:51.570Z,95889.50
2022-10-14T06:37:55.705Z,95890.03
2022-10-14T06:39:58.493Z,95881.94
2022-10-14T06:42:03.111Z,95893.00
2022-10-14T06:44:05.825Z,95739.44
2022-10-14T06:46:08.546Z,95887.88
2022-10-14T06:48:11.414Z,95898.94
2022-10-14T06:50:14.288Z,95887.34
2022-10-14T06:52:16.958Z,95670.69
2022-10-14T06:54:21.191Z,95887.88
2022-10-14T06:56:23.916Z,95894.34
2022-10-14T06:58:26.721Z,95889.47
2022-10-14T07:00:29.547Z,95892.44
2022-10-14T07:02:32.274Z,95892.97
2022-10-14T07:04:35.353Z,95749.69
2022-10-14T07:06:38.444Z,95891.34
2022-10-14T07:08:41.417Z,95894.03
2022-10-14T07:10:47.754Z,95886.75
2022-10-14T07:12:50.449Z,95885.13
2022-10-14T07:14:53.385Z,95881.06
2022-10-14T07:16:56.012Z,95878.63
2022-10-14T07:19:00.010Z,95886.47
2022-10-14T07:21:03.900Z,95679.59
2022-10-14T07:23:06.538Z,95881.56
2022-10-14T07:25:10.422Z,95881.81
2022-10-14T07:27:16.001Z,95883.16
2022-10-14T07:29:19.100Z,95885.56
2022-10-14T07:31:21.767Z,95887.72
2022-10-14T07:33:24.498Z,95878.50
2022-10-14T07:35:27.755Z,95880.69
2022-10-14T07:37:30.578Z,95783.59
2022-10-14T07:39:34.081Z,95883.63
2022-10-14T07:41:37.395Z,95826.16
2022-10-14T07:43:42.030Z,95876.84
2022-10-14T07:45:47.146Z,95884.69
2022-10-14T07:47:52.004Z,95886.00
2022-10-14T07:49:54.884Z,95878.69
2022-10-14T07:51:57.580Z,95888.13
2022-10-14T07:54:02.410Z,95891.88
2022-10-14T07:56:05.887Z,95885.09
2022-10-14T07:58:08.535Z,95889.16
2022-10-14T08:00:13.224Z,95894.59
2022-10-14T08:02:15.875Z,95887.81
2022-10-14T08:04:19.549Z,95902.69
2022-10-14T08:06:22.668Z,95899.44
2022-10-14T08:08:25.380Z,95905.06
2022-10-14T08:10:28.052Z,95899.91
2022-10-14T08:12:30.867Z,95896.13
2022-10-14T08:14:33.674Z,95892.81
2022-10-14T08:16:38.626Z,95879.00
2022-10-14T08:18:41.624Z,95883.25
2022-10-14T08:20:44.471Z,95890.56
2022-10-14T08:22:47.383Z,95885.69
2022-10-14T08:24:50.264Z,95890.09
2022-10-14T08:26:54.374Z,95880.88
2022-10-14T08:28:57.771Z,95884.09
2022-10-14T08:31:00.472Z,95882.63
2022-10-14T08:33:04.675Z,95879.31
2022-10-14T08:35:08.698Z,95864.78
2022-10-14T08:37:12.227Z,95885.22
2022-10-14T08:39:17.526Z,95886.81
2022-10-14T08:41:32.884Z,95710.31
2022-10-14T08:43:39.438Z,95887.75
2022-10-14T08:45:48.521Z,95887.13
2022-10-14T08:47:57.077Z,95885.19
2022-10-14T08:50:06.802Z,95878.88
2022-10-14T08:52:13.791Z,95815.19
2022-10-14T08:54:23.958Z,95815.16
2022-10-14T08:56:26.905Z,95871.44
2022-10-14T08:58:32.997Z,95871.63
2022-10-14T09:00:37.298Z,95864.78
2022-10-14T09:02:47.171Z,95873.84
2022-10-14T09:04:50.129Z,95877.06
2022-10-14T09:06:56.602Z,95881.06
2022-10-14T09:09:07.072Z,95783.59
2022-10-14T09:11:14.861Z,95838.41
2022-10-14T09:13:26.651Z,95874.06
2022-10-14T09:15:35.641Z,95870.16
2022-10-14T09:17:44.063Z,95860.75
2022-10-14T09:19:51.328Z,95656.69
2022-10-14T09:21:55.899Z,95863.41
2022-10-14T09:24:02.529Z,95860.78
2022-10-14T09:26:11.271Z,95859.06
2022-10-14T09:28:14.323Z,95861.22
2022-10-14T09:30:18.924Z,95671.25
2022-10-14T09:32:28.793Z,95860.84
2022-10-14T09:34:35.624Z,95850.47
2022-10-14T09:36:38.557Z,95849.34
2022-10-14T09:38:43.341Z,95887.91
2022-10-14T09:40:49.074Z,95852.22
2022-10-14T09:42:58.026Z,95846.19
2022-10-14T09:47:19.130Z,95845.91
2022-10-14T09:49:33.151Z,95845.41
2022-10-14T09:51:36.133Z,95840.06
2022-10-14T09:53:42.224Z,95833.00
2022-10-14T09:55:50.375Z,95838.72
2022-10-14T09:58:06.342Z,95838.53
2022-10-14T10:00:27.201Z,95836.84
2022-10-14T10:02:42.077Z,95836.59
2022-10-14T10:04:47.764Z,95832.84
2022-10-14T10:06:54.082Z,95835.28
2022-10-14T10:09:00.029Z,95830.56
2022-10-14T10:11:07.358Z,95833.59
2022-10-14T10:13:22.480Z,95832.59
2022-10-14T10:15:25.796Z,95830.53
2022-10-14T10:17:32.695Z,95826.28
2022-10-14T10:19:37.577Z,95829.13
2022-10-14T10:21:40.352Z,95825.19
2022-10-14T10:23:52.818Z,95790.38
2022-10-14T10:25:56.170Z,95691.00
2022-10-14T10:28:01.146Z,95820.41
2022-10-14T10:30:22.167Z,95441.69
2022-10-14T10:32:33.599Z,95387.00
2022-10-14T10:35:06.289Z,95697.03
2022-10-14T10:37:24.219Z,95924.72
2022-10-14T10:39:38.555Z,95689.16
2022-10-14T10:41:53.721Z,95472.22
2022-10-14T10:44:20.294Z,95688.06
2022-10-14T10:46:46.217Z,95492.41
2022-10-14T10:48:57.355Z,95793.59
2022-10-14T10:51:05.399Z,95720.09
2022-10-14T10:53:32.764Z,95230.75
2022-10-14T10:55:42.332Z,95445.22
2022-10-14T10:57:58.259Z,95143.28
2022-10-14T11:00:07.847Z,94734.09
2022-10-14T11:02:45.971Z,95776.72
2022-10-14T11:04:54.964Z,95772.59
2022-10-14T11:07:27.875Z,95764.19
2022-10-14T11:10:09.291Z,95757.88
2022-10-14T11:12:23.310Z,95755.22
2022-10-14T11:14:40.364Z,95766.13
2022-10-14T11:16:52.734Z,95374.59
2022-10-14T11:19:02.720Z,95722.03
2022-10-14T11:21:16.710Z,95744.78
2022-10-14T11:23:42.533Z,95593.13
2022-10-14T11:25:52.828Z,95738.22
2022-10-14T11:28:05.619Z,95749.50
2022-10-14T11:30:17.090Z,95734.09
2022-10-14T11:32:28.602Z,94939.75
2022-10-14T11:34:43.058Z,95728.47
2022-10-14T11:37:00.644Z,95735.31
2022-10-14T11:39:35.830Z,95724.66
2022-10-14T11:41:54.850Z,95604.56
2022-10-14T11:44:03.633Z,95549.72
2022-10-14T11:46:11.592Z,95725.56
2022-10-14T11:50:48.656Z,95732.28
2022-10-14T11:53:02.022Z,95739.81
2022-10-14T11:55:14.649Z,95742.94
2022-10-14T11:57:27.499Z,95745.66
2022-10-14T11:59:40.531Z,95742.53
2022-10-14T12:02:13.409Z,95728.78
2022-10-14T12:04:25.728Z,95713.81
2022-10-14T12:06:37.092Z,95362.19
2022-10-14T12:08:47.402Z,95469.97
2022-10-14T12:10:55.679Z,95697.69
2022-10-14T12:12:59.256Z,95707.13
2022-10-14T12:15:06.839Z,95509.41
2022-10-14T12:17:19.043Z,95706.91
2022-10-14T12:19:25.830Z,95457.34
2022-10-14T12:21:36.744Z,95692.22
2022-10-14T12:23:44.028Z,95664.91
2022-10-14T12:25:56.737Z,95694.94
2022-10-14T12:27:59.727Z,95590.22
2022-10-14T12:30:03.637Z,95688.00
2022-10-14T12:32:10.485Z,95677.16
2022-10-14T12:34:27.505Z,95687.63
2022-10-14T12:38:38.233Z,95585.81
2022-10-14T12:40:41.650Z,95677.47
2022-10-14T12:43:00.541Z,95678.06
2022-10-14T12:45:16.741Z,95678.25
2022-10-14T12:47:24.058Z,95665.97
2022-10-14T12:49:31.154Z,95627.09
2022-10-14T12:51:35.382Z,95687.81
2022-10-14T12:53:40.577Z,95674.34
2022-10-14T12:55:50.230Z,95678.25
2022-10-14T12:57:54.997Z,95446.81
2022-10-14T13:00:01.745Z,95674.69
2022-10-14T13:02:18.901Z,95675.78
2022-10-14T13:04:21.808Z,95340.53
2022-10-14T13:07:11.823Z,95679.38
2022-10-14T13:09:40.872Z,95524.41
2022-10-14T13:11:45.317Z,95690.25
2022-10-14T13:13:52.810Z,95686.31
2022-10-14T13:15:55.594Z,95693.16
2022-10-14T13:17:59.976Z,95690.81
2022-10-14T13:20:04.406Z,95429.97
2022-10-14T13:22:37.997Z,95691.66
2022-10-14T13:24:42.013Z,95629.00
2022-10-14T13:26:58.375Z,95678.66
2022-10-14T13:29:16.176Z,95670.59
2022-10-14T13:31:25.311Z,94462.72
2022-10-14T13:33:37.777Z,95665.66
2022-10-14T13:35:50.504Z,95675.13
2022-10-14T13:38:00.752Z,95679.84
2022-10-14T13:40:19.578Z,95675.13
2022-10-14T13:42:26.716Z,95571.03
2022-10-14T13:44:29.800Z,95685.38
2022-10-14T13:46:40.184Z,95664.19
2022-10-14T13:48:46.165Z,95683.56
2022-10-14T13:50:58.614Z,95595.22
2022-10-14T13:53:18.314Z,95693.41
2022-10-14T13:55:23.673Z,95631.97
2022-10-14T14:02:18.256Z,95670.16
2022-10-14T14:04:25.153Z,95672.88
2022-10-14T14:06:35.923Z,95666.69
2022-10-14T14:08:52.586Z,95624.91
2022-10-14T14:11:17.816Z,95490.78
2022-10-14T14:13:21.362Z,95658.66
2022-10-14T14:15:26.728Z,95660.13
2022-10-14T14:17:31.489Z,95655.53
2022-10-14T14:19:36.487Z,95590.41
2022-10-14T14:21:39.356Z,95650.16
2022-10-14T14:23:52.265Z,95649.09
2022-10-14T14:26:17.837Z,95656.09
2022-10-14T14:28:19.763Z,95650.16
2022-10-14T14:30:28.154Z,95654.63
2022-10-14T14:32:33.148Z,95655.94
2022-10-14T14:34:37.869Z,95651.81
2022-10-14T14:37:05.612Z,95648.25
2022-10-14T14:39:07.785Z,95661.88
2022-10-14T14:41:19.345Z,95664.66
2022-10-14T14:43:24.082Z,95654.91
2022-10-14T14:45:29.218Z,95640.88
2022-10-14T14:47:32.859Z,95660.41
2022-10-14T14:49:39.278Z,95483.75
2022-10-14T14:51:44.196Z,95659.59
2022-10-14T14:53:55.394Z,95654.41
2022-10-14T14:56:07.898Z,95663.88
2022-10-14T14:58:33.659Z,95671.56
2022-10-14T15:00:36.559Z,95665.94
2022-10-14T15:02:39.250Z,95672.75
2022-10-14T15:04:42.521Z,95645.66
2022-10-14T15:06:51.795Z,95675.81
2022-10-14T15:08:57.135Z,95664.63
2022-10-14T15:11:01.264Z,95602.44
2022-10-14T15:13:05.501Z,95550.22
2022-10-14T15:15:26.837Z,95653.88
2022-10-14T15:17:33.539Z,95662.59
2022-10-14T15:19:38.726Z,95663.81
2022-10-14T15:21:41.816Z,95655.06
2022-10-14T15:24:03.285Z,95659.94
2022-10-14T15:26:25.206Z,95396.50
2022-10-14T15:28:33.753Z,95654.28
2022-10-14T15:30:51.761Z,95642.91
2022-10-14T15:33:00.042Z,95646.44
2022-10-14T15:35:03.107Z,95639.41
2022-10-14T15:37:06.064Z,95640.22
2022-10-14T15:39:09.501Z,95631.78
2022-10-14T15:41:12.475Z,95636.41
2022-10-14T15:43:17.769Z,95575.59
2022-10-14T15:45:24.444Z,95629.31
2022-10-14T15:47:28.846Z,95632.31
2022-10-14T15:49:33.784Z,95627.25
2022-10-14T15:51:36.515Z,95625.13
2022-10-14T15:53:39.137Z,95632.22
2022-10-14T15:55:41.800Z,95627.16
2022-10-14T15:57:45.777Z,95630.97
2022-10-14T15:59:48.410Z,95625.91
2022-10-14T16:01:52.988Z,95628.59
2022-10-14T16:03:56.091Z,95629.97
2022-10-14T16:05:59.087Z,95620.63
2022-10-14T16:08:01.738Z,95489.44
2022-10-14T16:10:04.890Z,95614.31
2022-10-14T16:12:11.647Z,95618.72
2022-10-14T16:14:14.436Z,95118.13
2022-10-14T16:16:23.038Z,95630.75
2022-10-14T16:18:27.217Z,95621.84
2022-10-14T16:20:33.403Z,95550.59
2022-10-14T16:22:36.086Z,95530.00
2022-10-14T16:24:38.817Z,95610.72
2022-10-14T16:26:42.271Z,95335.94
2022-10-14T16:28:47.678Z,95609.38
2022-10-14T16:30:52.891Z,95553.03
2022-10-14T16:32:55.993Z,95609.09
2022-10-14T16:35:00.308Z,95608.28
2022-10-14T16:37:03.022Z,95608.59
2022-10-14T16:39:06.073Z,95612.91
2022-10-14T16:41:09.710Z,95609.97
2022-10-14T16:43:12.664Z,95618.66
2022-10-14T16:45:15.631Z,95290.47
2022-10-14T16:47:19.521Z,95619.81
2022-10-14T16:49:22.448Z,95607.38
2022-10-14T16:51:26.563Z,95607.09
2022-10-14T16:53:43.439Z,95601.44
2022-10-14T16:55:46.125Z,95603.13
2022-10-14T16:57:49.266Z,95600.47
2022-10-14T16:59:51.882Z,95605.94
2022-10-14T17:01:54.849Z,95607.56
2022-10-14T17:03:58.858Z,95598.34
2022-10-14T17:06:01.620Z,95602.13
2022-10-14T17:08:05.972Z,95352.28
2022-10-14T17:10:09.781Z,95600.25
2022-10-14T17:12:14.106Z,95560.41
2022-10-14T17:14:21.856Z,95592.63
2022-10-14T17:16:25.324Z,95605.13
2022-10-14T17:18:33.690Z,95365.13
2022-10-14T17:20:37.623Z,95603.41
2022-10-14T17:22:41.095Z,95455.59
2022-10-14T17:24:45.090Z,95593.97
2022-10-14T17:26:47.867Z,95588.59
2022-10-14T17:28:50.669Z,95330.53
2022-10-14T17:30:53.422Z,95587.56
2022-10-14T17:32:56.132Z,95552.09
2022-10-14T17:34:58.761Z,95582.16
2022-10-14T17:37:01.537Z,95584.88
2022-10-14T17:39:04.632Z,95256.09
2022-10-14T17:41:10.628Z,95536.56
2022-10-14T17:43:14.372Z,95577.84
2022-10-14T17:45:19.517Z,95567.31
2022-10-14T17:47:23.386Z,95460.09
2022-10-14T17:49:26.376Z,95435.34
2022-10-14T17:51:29.709Z,95519.91
2022-10-14T17:53:32.391Z,95571.97
2022-10-14T17:55:36.194Z,95571.72
2022-10-14T17:57:40.177Z,95567.06
2022-10-14T17:59:42.815Z,95570.34
2022-10-14T18:04:08.272Z,95575.72
2022-10-14T18:06:13.351Z,95579.75
2022-10-14T18:08:16.214Z,95575.94
2022-10-14T18:10:19.244Z,95107.84
2022-10-14T18:12:22.726Z,95569.03
2022-10-14T18:14:27.091Z,95565.56
2022-10-14T18:16:33.399Z,95538.13
2022-10-14T18:18:36.696Z,95553.78
2022-10-14T18:20:39.518Z,95565.56
2022-10-14T18:22:42.293Z,95559.06
2022-10-14T18:24:45.012Z,95561.31
2022-10-14T18:26:50.427Z,95560.78
2022-10-14T18:28:54.899Z,95469.41
2022-10-14T18:31:04.549Z,95513.38
2022-10-14T18:33:07.246Z,95504.56
2022-10-14T18:35:10.479Z,95495.13
2022-10-14T18:37:13.197Z,95550.97
2022-10-14T18:39:15.911Z,95549.88
2022-10-14T18:41:19.060Z,95520.03
2022-10-14T18:43:21.756Z,95502.44
2022-10-14T18:45:24.754Z,95552.34
2022-10-14T18:47:28.800Z,95421.50
2022-10-14T18:49:34.487Z,95521.38
2022-10-14T18:51:40.707Z,95545.53
2022-10-14T18:53:45.059Z,95538.25
2022-10-14T18:55:47.721Z,95544.50
2022-10-14T18:57:50.398Z,95547.84
2022-10-14T18:59:53.040Z,95537.06
2022-10-14T19:01:56.565Z,95602.66
2022-10-14T19:04:01.239Z,95529.97
2022-10-14T19:06:03.910Z,95523.47
2022-10-14T19:08:06.982Z,95533.00
2022-10-14T19:10:10.799Z,95521.34
2022-10-14T19:12:30.867Z,95517.84
2022-10-14T19:14:33.737Z,95508.41
2022-10-14T19:16:38.557Z,95456.31
2022-10-14T19:18:42.023Z,95505.00
2022-10-14T19:20:46.176Z,95507.25
2022-10-14T19:22:51.877Z,95507.47
2022-10-14T19:24:58.488Z,95494.19
2022-10-14T19:27:01.171Z,95493.69
2022-10-14T19:29:10.428Z,95493.09
2022-10-14T19:31:16.383Z,95492.34
2022-10-14T19:33:19.166Z,95481.81
2022-10-14T19:35:22.513Z,95491.31
2022-10-14T19:37:26.637Z,95339.09
2022-10-14T19:39:29.659Z,95479.50
2022-10-14T19:41:34.595Z,95182.59
2022-10-14T19:43:37.593Z,95331.53
2022-10-14T19:45:41.450Z,95483.63
2022-10-14T19:47:44.232Z,95480.94
2022-10-14T19:49:47.244Z,95414.03
2022-10-14T19:51:49.995Z,95476.28
2022-10-14T19:53:55.799Z,95323.44
2022-10-14T19:56:03.599Z,95469.28
2022-10-14T19:58:07.903Z,95470.22
2022-10-14T20:00:11.995Z,95468.31
2022-10-14T20:02:14.710Z,95232.06
2022-10-14T20:04:20.826Z,95457.75
2022-10-14T20:06:27.387Z,95139.69
2022-10-14T20:08:30.738Z,95396.94
2022-10-14T20:10:34.927Z,95458.06
2022-10-14T20:12:37.956Z,95186.19
2022-10-14T20:14:40.991Z,95397.09
2022-10-14T20:16:43.616Z,95456.00
2022-10-14T20:18:46.746Z,95479.88
2022-10-14T20:20:49.815Z,95451.69
2022-10-14T20:22:52.445Z,95343.19
2022-10-14T20:24:55.177Z,95449.31
2022-10-14T20:26:59.292Z,95392.81
2022-10-14T20:29:01.953Z,95449.31
2022-10-14T20:31:07.515Z,95354.56
2022-10-14T20:33:10.466Z,95445.50
2022-10-14T20:35:15.155Z,95437.94
2022-10-14T20:37:18.233Z,95320.34
2022-10-14T20:39:21.314Z,95203.84
2022-10-14T20:41:26.124Z,95429.41
2022-10-14T20:43:30.167Z,95421.78
2022-10-14T20:45:32.870Z,95314.38
2022-10-14T20:47:35.786Z,95423.16
2022-10-14T20:49:38.527Z,95437.94
2022-10-14T20:51:41.475Z,95419.56
2022-10-14T20:53:44.634Z,95388.28
2022-10-14T20:55:47.432Z,95227.66
2022-10-14T20:57:50.119Z,95301.03
2022-10-14T20:59:54.588Z,95418.75
2022-10-14T21:01:57.532Z,95395.66
2022-10-14T21:04:01.852Z,95191.31
2022-10-14T21:06:06.612Z,95171.63
2022-10-14T21:08:09.418Z,95390.94
2022-10-14T21:10:12.293Z,95401.63
2022-10-14T21:12:15.601Z,95295.88
2022-10-14T21:14:18.467Z,95402.69
2022-10-14T21:16:24.493Z,95289.69
2022-10-14T21:18:27.674Z,95431.06
2022-10-14T21:20:30.650Z,95022.38
2022-10-14T21:22:33.268Z,95314.97
2022-10-14T21:24:36.250Z,95226.41
2022-10-14T21:26:38.997Z,95394.19
2022-10-14T21:28:42.380Z,95271.97
2022-10-14T21:30:45.393Z,95385.78
2022-10-14T21:32:49.647Z,95396.53
2022-10-14T21:34:52.571Z,95379.97
2022-10-14T21:36:55.270Z,95378.13
2022-10-14T21:39:00.672Z,95441.91
2022-10-14T21:41:05.273Z,95203.66
2022-10-14T21:43:08.013Z,95264.59
2022-10-14T21:45:11.461Z,95109.06
2022-10-14T21:47:14.221Z,95306.69
2022-10-14T21:49:18.472Z,95367.06
2022-10-14T21:51:21.231Z,95378.41
2022-10-14T21:53:23.951Z,95366.75
2022-10-14T21:55:26.846Z,95362.44
2022-10-14T21:57:29.452Z,95354.63
2022-10-14T21:59:32.250Z,95362.97
2022-10-14T22:01:35.059Z,95361.03
2022-10-14T22:03:39.187Z,95349.97
2022-10-14T22:05:43.443Z,95371.31
2022-10-14T22:07:46.211Z,95344.00
2022-10-14T22:09:48.940Z,95346.13
2022-10-14T22:11:54.083Z,95325.81
2022-10-14T22:13:58.965Z,95116.00
2022-10-14T22:16:01.963Z,95353.97
2022-10-14T22:18:04.942Z,95343.16
2022-10-14T22:20:08.794Z,95153.25
2022-10-14T22:22:13.071Z,95346.38
2022-10-14T22:24:15.742Z,95340.38
2022-10-14T22:26:20.512Z,95338.25
2022-10-14T22:28:23.252Z,95338.22
2022-10-14T22:30:25.986Z,95336.94
2022-10-14T22:32:28.772Z,95339.88
2022-10-14T22:34:31.386Z,95338.25
2022-10-14T22:36:35.897Z,95339.59
2022-10-14T22:38:42.350Z,95341.19
2022-10-14T22:40:45.136Z,95342.22
2022-10-14T22:42:51.417Z,95079.19
2022-10-14T22:44:54.465Z,95336.81
2022-10-14T22:46:57.092Z,95337.13
2022-10-14T22:49:01.719Z,95333.84
2022-10-14T22:51:05.877Z,95231.94
2022-10-14T22:53:08.684Z,95329.88
2022-10-14T22:55:12.731Z,95329.00
2022-10-14T22:57:15.413Z,95322.06
2022-10-14T22:59:18.278Z,95325.56
2022-10-14T23:01:22.454Z,95313.38
2022-10-14T23:03:25.565Z,95325.63
2022-10-14T23:05:28.241Z,95202.72
2022-10-14T23:07:31.061Z,95265.22
2022-10-14T23:11:43.148Z,95302.06
2022-10-14T23:13:46.302Z,95303.94
2022-10-14T23:15:56.742Z,95293.94
2022-10-14T23:17:59.738Z,95304.19
2022-10-14T23:20:02.663Z,95308.53
2022-10-14T23:22:05.611Z,95313.50
2022-10-14T23:24:11.494Z,95184.53
2022-10-14T23:26:16.110Z,95306.13
2022-10-14T23:28:20.401Z,95310.09
2022-10-14T23:30:23.640Z,95295.72
2022-10-14T23:32:26.432Z,95288.41
2022-10-14T23:34:29.404Z,95244.09
2022-10-14T23:36:32.635Z,95161.09
2022-10-14T23:38:36.099Z,95069.81
2022-10-14T23:40:39.065Z,95287.25
2022-10-14T23:42:42.065Z,95287.84
2022-10-14T23:44:46.119Z,95169.06
2022-10-14T23:46:50.198Z,95280.25
2022-10-14T23:49:06.599Z,95248.38
2022-10-14T23:51:11.180Z,95280.03
2022-10-14T23:53:14.112Z,95113.44
2022-10-14T23:55:17.439Z,95281.53
2022-10-14T23:57:20.714Z,95289.56
2022-10-14T23:59:23.695Z,95278.19
